Time;durP1;ratioP1;P1;durP2;ratioP2;P2;SDS_P1;SDS_P2;PMS_P1;PMS_P2;Temp;Humidity;BMP_temperature;BMP_pressure;BME280_temperature;BME280_humidity;BME280_pressure;Samples;Min_cycle;Max_cycle;Signal;HPM_P1;HPM_P2
2022/08/21 00:01:25;;;;;;;0.40;0.40;;;;;;;15.11;100.00;99606.75;7396703;19;20366;-78
2022/08/21 00:03:51;;;;;;;0.25;0.25;;;;;;;15.13;100.00;99615.41;7395931;19;20024;-78
2022/08/21 00:06:18;;;;;;;2.78;0.60;;;;;;;15.16;100.00;99619.97;7395075;19;20011;-78
2022/08/21 00:08:44;;;;;;;0.63;0.35;;;;;;;15.18;100.00;99611.81;7397302;19;20019;-79
2022/08/21 00:11:11;;;;;;;5.00;0.57;;;;;;;15.18;100.00;99617.41;7397376;19;20099;-79
2022/08/21 00:13:38;;;;;;;0.43;0.38;;;;;;;15.16;100.00;99608.75;7394888;19;20022;-79
2022/08/21 00:16:04;;;;;;;2.40;0.70;;;;;;;15.19;100.00;99618.97;7396724;19;20056;-79
2022/08/21 00:18:30;;;;;;;11.50;0.77;;;;;;;15.18;100.00;99617.41;7398340;19;20015;-79
2022/08/21 00:20:57;;;;;;;1.00;0.28;;;;;;;15.14;100.00;99616.91;7396612;19;20022;-79
2022/08/21 00:23:23;;;;;;;0.10;0.10;;;;;;;15.08;100.00;99618.97;7396797;19;20092;-79
2022/08/21 00:25:49;;;;;;;0.75;0.20;;;;;;;14.97;100.00;99607.75;7395229;19;20018;-78
2022/08/21 00:28:15;;;;;;;1.23;0.40;;;;;;;14.87;100.00;99608.53;7396459;19;20010;-78
2022/08/21 00:30:43;;;;;;;2.47;0.88;;;;;;;14.84;100.00;99610.31;7393166;19;20082;-79
2022/08/21 00:33:10;;;;;;;0.22;0.22;;;;;;;14.82;100.00;99601.66;7394274;19;20055;-78
2022/08/21 00:35:38;;;;;;;0.63;0.22;;;;;;;14.92;100.00;99605.72;7392681;19;20086;-77
2022/08/21 00:38:07;;;;;;;1.55;0.90;;;;;;;14.89;100.00;99609.56;7393542;19;20018;-78
2022/08/21 00:40:42;;;;;;;0.60;0.45;;;;;;;14.85;100.00;99606.25;7393408;19;20022;-79
2022/08/21 00:43:12;;;;;;;0.85;0.30;;;;;;;14.78;100.00;99606.75;7395673;19;20018;-79
2022/08/21 00:45:38;;;;;;;0.28;0.28;;;;;;;14.70;100.00;99599.38;7395213;19;20043;-79
2022/08/21 00:48:05;;;;;;;1.40;0.68;;;;;;;14.58;100.00;99598.59;7394242;19;20026;-79
2022/08/21 00:50:35;;;;;;;12.52;0.80;;;;;;;14.48;100.00;99602.94;7393134;19;20033;-80
2022/08/21 00:53:05;;;;;;;0.10;0.10;;;;;;;14.39;100.00;99605.97;7393529;19;20583;-79
2022/08/21 00:55:33;;;;;;;0.55;0.45;;;;;;;14.34;100.00;99612.34;7394202;19;20510;-79
2022/08/21 00:58:01;;;;;;;1.70;0.10;;;;;;;14.30;100.00;99614.63;7393129;19;20019;-80
2022/08/21 01:00:33;;;;;;;0.57;0.17;;;;;;;14.19;100.00;99608.97;7390552;19;20401;-79
2022/08/21 01:03:08;;;;;;;0.25;0.13;;;;;;;14.14;100.00;99618.13;7393747;19;20010;-79
2022/08/21 01:05:34;;;;;;;0.30;0.25;;;;;;;14.09;100.00;99613.28;7394487;19;20056;-79
2022/08/21 01:08:00;;;;;;;0.50;0.20;;;;;;;14.07;100.00;99615.81;7396281;19;20019;-79
2022/08/21 01:10:27;;;;;;;1.95;0.52;;;;;;;14.07;100.00;99624.22;7391557;19;20030;-79
2022/08/21 01:12:55;;;;;;;2.58;0.65;;;;;;;14.14;100.00;99620.94;7390159;19;20038;-79
2022/08/21 01:15:24;;;;;;;0.50;0.20;;;;;;;14.22;100.00;99633.19;7391504;19;20472;-79
2022/08/21 01:17:51;;;;;;;0.20;0.20;;;;;;;14.34;100.00;99629.13;7390853;19;20014;-79
2022/08/21 01:20:17;;;;;;;2.83;0.40;;;;;;;14.44;100.00;99627.66;7394233;19;20046;-79
2022/08/21 01:22:44;;;;;;;2.08;0.52;;;;;;;14.53;100.00;99629.44;7390860;19;20022;-79
2022/08/21 01:25:14;;;;;;;0.30;0.10;;;;;;;14.53;100.00;99624.56;7393093;19;20019;-79
2022/08/21 01:27:41;;;;;;;7.40;0.93;;;;;;;14.52;100.00;99625.88;7392640;19;20018;-79
2022/08/21 01:30:14;;;;;;;0.82;0.22;;;;;;;14.51;100.00;99626.38;7394935;19;20374;-79
2022/08/21 01:32:41;;;;;;;5.00;0.50;;;;;;;14.51;100.00;99626.38;7393296;19;20034;-78
2022/08/21 01:35:08;;;;;;;1.35;1.10;;;;;;;14.51;100.00;99627.13;7394221;19;20015;-78
2022/08/21 01:37:35;;;;;;;1.92;0.43;;;;;;;14.51;100.00;99621.53;7395127;19;20014;-78
2022/08/21 01:40:03;;;;;;;14.95;0.93;;;;;;;14.51;100.00;99620.78;7396499;19;20379;-79
2022/08/21 01:42:29;;;;;;;2.70;0.47;;;;;;;14.52;100.00;99611.84;7390576;19;20019;-79
2022/08/21 01:44:56;;;;;;;0.30;0.30;;;;;;;14.52;100.00;99609.06;7393034;19;20026;-78
2022/08/21 01:47:23;;;;;;;4.43;1.00;;;;;;;14.53;100.00;99612.63;7394692;19;20082;-78
2022/08/21 01:49:49;;;;;;;2.50;1.00;;;;;;;14.50;100.00;99620.00;7395976;19;20018;-79
2022/08/21 01:52:16;;;;;;;0.43;0.35;;;;;;;14.48;100.00;99625.34;7393667;19;20018;-78
2022/08/21 01:54:42;;;;;;;9.60;0.30;;;;;;;14.50;100.00;99622.81;7392520;19;20028;-79
2022/08/21 01:57:09;;;;;;;0.25;0.25;;;;;;;14.55;100.00;99626.88;7391477;19;20544;-79
2022/08/21 01:59:36;;;;;;;0.68;0.38;;;;;;;14.59;100.00;99622.56;7394354;19;20335;-79
2022/08/21 02:02:04;;;;;;;3.05;0.40;;;;;;;14.64;100.00;99627.38;7391736;19;20014;-78
2022/08/21 02:04:30;;;;;;;5.82;0.30;;;;;;;14.66;100.00;99629.69;7390375;19;20031;-79
2022/08/21 02:06:57;;;;;;;0.40;0.20;;;;;;;14.60;100.00;99624.09;7390141;19;20469;-79
2022/08/21 02:09:23;;;;;;;9.48;0.40;;;;;;;14.56;100.00;99623.56;7395753;19;20006;-78
2022/08/21 02:11:49;;;;;;;6.15;0.32;;;;;;;14.53;100.00;99624.56;7390508;19;20050;-78
2022/08/21 02:14:15;;;;;;;0.90;0.22;;;;;;;14.51;100.00;99629.19;7389771;19;20015;-78
2022/08/21 02:16:44;;;;;;;3.30;0.35;;;;;;;14.46;100.00;99625.09;7392661;19;20145;-78
2022/08/21 02:19:11;;;;;;;0.85;0.40;;;;;;;14.38;100.00;99636.03;7393928;19;20014;-78
2022/08/21 02:21:38;;;;;;;0.68;0.20;;;;;;;14.40;100.00;99624.34;7390748;19;20022;-78
2022/08/21 02:24:04;;;;;;;0.20;0.10;;;;;;;14.39;100.00;99625.59;7392017;19;20021;-79
2022/08/21 02:26:31;;;;;;;0.40;0.35;;;;;;;14.34;100.00;99629.13;7393339;19;20464;-79
2022/08/21 02:28:57;;;;;;;0.30;0.28;;;;;;;14.26;100.00;99620.47;7393090;19;20362;-78
2022/08/21 02:31:24;;;;;;;1.45;0.52;;;;;;;14.19;100.00;99628.56;7391015;19;20018;-79
2022/08/21 02:33:50;;;;;;;0.32;0.22;;;;;;;14.09;100.00;99628.06;7391804;19;20025;-78
2022/08/21 02:36:17;;;;;;;1.77;1.15;;;;;;;14.04;100.00;99626.00;7389869;19;20010;-78
2022/08/21 02:38:44;;;;;;;0.82;0.60;;;;;;;14.00;100.00;99627.50;7393212;19;20023;-78
2022/08/21 02:41:14;;;;;;;0.45;0.13;;;;;;;13.97;100.00;99628.53;7390103;19;20029;-78
2022/08/21 02:43:41;;;;;;;0.20;0.20;;;;;;;14.00;100.00;99621.91;7390728;19;20039;-78
2022/08/21 02:46:09;;;;;;;0.88;0.25;;;;;;;14.04;100.00;99619.63;7392090;19;20512;-79
2022/08/21 02:48:36;;;;;;;2.63;0.63;;;;;;;14.13;100.00;99616.59;7392888;19;20524;-78
2022/08/21 02:51:06;;;;;;;0.77;0.40;;;;;;;14.17;100.00;99614.31;7390744;19;20018;-79
2022/08/21 02:53:33;;;;;;;0.50;0.40;;;;;;;14.16;100.00;99607.94;7390131;19;20018;-79
2022/08/21 02:56:02;;;;;;;7.18;0.68;;;;;;;14.19;100.00;99606.16;7386766;19;20042;-78
2022/08/21 02:58:32;;;;;;;0.30;0.20;;;;;;;14.25;100.00;99606.97;7391393;19;20045;-78
2022/08/21 03:00:58;;;;;;;9.73;0.45;;;;;;;14.32;100.00;99606.47;7392697;19;20477;-79
2022/08/21 03:03:26;;;;;;;0.32;0.32;;;;;;;14.33;100.00;99594.78;7389742;19;20086;-79
2022/08/21 03:05:53;;;;;;;1.20;0.80;;;;;;;14.36;100.00;99592.97;7389448;19;20026;-79
2022/08/21 03:08:21;;;;;;;3.15;0.45;;;;;;;14.36;100.00;99592.97;7390583;19;20338;-79
2022/08/21 03:10:50;;;;;;;0.47;0.47;;;;;;;14.34;100.00;99601.13;7387730;19;20021;-79
2022/08/21 03:13:17;;;;;;;0.43;0.32;;;;;;;14.32;100.00;99589.66;7388926;19;20018;-78
2022/08/21 03:15:44;;;;;;;3.00;0.93;;;;;;;14.31;100.00;99585.34;7389616;19;20026;-78
2022/08/21 03:18:11;;;;;;;2.28;0.45;;;;;;;14.24;100.00;99580.97;7390363;19;20045;-78
2022/08/21 03:20:38;;;;;;;4.85;0.40;;;;;;;14.20;100.00;99586.06;7390297;19;20014;-79
2022/08/21 03:23:06;;;;;;;5.03;0.63;;;;;;;14.17;100.00;99587.06;7391791;19;20014;-78
2022/08/21 03:25:33;;;;;;;6.13;0.43;;;;;;;14.16;100.00;99584.78;7388702;19;20025;-78
2022/08/21 03:28:05;;;;;;;2.25;0.75;;;;;;;14.13;100.00;99580.19;7392092;19;20014;-78
2022/08/21 03:30:32;;;;;;;3.22;0.38;;;;;;;14.12;100.00;99581.47;7388543;19;20879;-79
2022/08/21 03:32:58;;;;;;;0.10;0.10;;;;;;;14.16;100.00;99579.19;7389761;19;20018;-78
2022/08/21 03:35:26;;;;;;;0.10;0.10;;;;;;;14.19;100.00;99586.56;7388852;19;20515;-79
2022/08/21 03:37:53;;;;;;;3.08;1.33;;;;;;;14.15;100.00;99580.44;7388564;19;20019;-78
2022/08/21 03:40:21;;;;;;;1.92;0.40;;;;;;;14.16;100.00;99582.00;7388545;19;20023;-79
2022/08/21 03:42:47;;;;;;;0.63;0.45;;;;;;;14.20;100.00;99591.69;7388420;19;20023;-78
2022/08/21 03:45:18;;;;;;;1.30;0.10;;;;;;;14.19;100.00;99594.97;7389922;19;20026;-78
2022/08/21 03:47:59;;;;;;;4.90;0.77;;;;;;;14.17;100.00;99597.50;7388831;19;20025;-78
2022/08/21 03:50:28;;;;;;;2.50;0.88;;;;;;;14.15;100.00;99591.66;7388217;19;20018;-78
2022/08/21 03:52:55;;;;;;;0.40;0.40;;;;;;;14.18;100.00;99599.81;7389047;19;20562;-79
2022/08/21 03:55:21;;;;;;;0.20;0.20;;;;;;;14.21;100.00;99604.41;7387060;19;20019;-78
2022/08/21 03:57:47;;;;;;;1.05;0.77;;;;;;;14.26;100.00;99600.06;7388526;19;20136;-78
2022/08/21 04:00:15;;;;;;;3.13;0.50;;;;;;;14.33;100.00;99602.41;7392766;19;20014;-78
2022/08/21 04:02:43;;;;;;;2.83;0.82;;;;;;;14.40;100.00;99599.13;7395193;19;20365;-78
2022/08/21 04:05:12;;;;;;;4.03;0.50;;;;;;;14.46;100.00;99608.28;7389994;19;20030;-79
2022/08/21 04:07:38;;;;;;;2.50;0.50;;;;;;;14.52;100.00;99606.25;7390834;19;20018;-78
2022/08/21 04:10:05;;;;;;;5.05;0.82;;;;;;;14.58;100.00;99604.22;7392873;19;20401;-79
2022/08/21 04:12:32;;;;;;;1.20;0.20;;;;;;;14.64;100.00;99604.97;7387939;19;20132;-79
2022/08/21 04:14:58;;;;;;;3.30;0.25;;;;;;;14.69;100.00;99604.22;7389898;19;20028;-78
2022/08/21 04:17:24;;;;;;;1.73;0.52;;;;;;;14.73;100.00;99615.94;7389709;19;20018;-78
2022/08/21 04:19:50;;;;;;;6.00;0.80;;;;;;;14.78;100.00;99625.63;7389331;19;20010;-78
2022/08/21 04:22:17;;;;;;;14.48;1.23;;;;;;;14.78;100.00;99615.19;7385795;19;20025;-79
2022/08/21 04:24:43;;;;;;;0.20;0.20;;;;;;;14.77;100.00;99616.44;7389982;19;20046;-79
2022/08/21 04:27:09;;;;;;;0.88;0.13;;;;;;;14.80;100.00;99615.44;7388472;19;20007;-78
2022/08/21 04:29:35;;;;;;;11.80;0.45;;;;;;;14.83;100.00;99631.25;7390293;19;20018;-79
2022/08/21 04:32:01;;;;;;;4.53;0.40;;;;;;;14.88;100.00;99622.03;7388022;19;20010;-78
2022/08/21 04:34:27;;;;;;;0.20;0.10;;;;;;;14.94;100.00;99620.00;7389523;19;20036;-79
2022/08/21 04:36:54;;;;;;;6.80;0.52;;;;;;;15.00;100.00;99626.38;7391724;19;20477;-79
2022/08/21 04:39:20;;;;;;;0.98;0.32;;;;;;;15.04;100.00;99626.88;7399925;19;20010;-79
2022/08/21 04:41:46;;;;;;;1.45;0.52;;;;;;;15.06;100.00;99624.34;7394055;19;20014;-78
2022/08/21 04:44:12;;;;;;;0.57;0.20;;;;;;;15.10;100.00;99636.06;7395887;19;20035;-78
2022/08/21 04:46:38;;;;;;;0.22;0.22;;;;;;;15.15;100.00;99638.09;7396269;19;20074;-78
2022/08/21 04:49:04;;;;;;;4.55;0.68;;;;;;;15.19;100.00;99640.63;7398808;19;20007;-78
2022/08/21 04:51:36;;;;;;;0.10;0.10;;;;;;;15.20;100.00;99642.91;7393614;19;20030;-78
2022/08/21 04:54:08;;;;;;;0.17;0.17;;;;;;;15.22;100.00;99645.22;7396696;19;20019;-79
2022/08/21 04:56:42;;;;;;;0.60;0.38;;;;;;;15.27;100.00;99638.81;7396239;19;20019;-78
2022/08/21 04:59:20;;;;;;;0.10;0.10;;;;;;;15.31;100.00;99630.91;7396758;19;20499;-78
2022/08/21 05:01:47;;;;;;;3.60;0.52;;;;;;;15.30;100.00;99637.03;7395453;19;20010;-79
2022/08/21 05:04:17;;;;;;;0.30;0.20;;;;;;;15.37;100.00;99639.31;7399618;19;20425;-77
2022/08/21 05:06:45;;;;;;;;;;;;;;;15.42;100.00;99646.97;7396242;19;20646;-77
2022/08/21 05:09:14;;;;;;;8.60;0.32;;;;;;;15.44;100.00;99638.84;7397226;19;19990;-77
2022/08/21 05:11:42;;;;;;;6.88;1.05;;;;;;;15.49;100.00;99641.59;7393577;19;20390;-77
2022/08/21 05:14:10;;;;;;;3.20;0.52;;;;;;;15.51;100.00;99643.91;7398510;19;20020;-77
2022/08/21 05:16:36;;;;;;;4.47;0.52;;;;;;;15.54;100.00;99656.91;7396699;19;20018;-77
2022/08/21 05:19:02;;;;;;;1.83;1.05;;;;;;;15.57;100.00;99658.69;7397443;19;20027;-76
2022/08/21 05:21:28;;;;;;;0.63;0.13;;;;;;;15.59;100.00;99661.75;7392059;19;20018;-78
2022/08/21 05:23:54;;;;;;;0.50;0.30;;;;;;;15.59;100.00;99658.94;7394947;19;20015;-78
2022/08/21 05:26:20;;;;;;;3.50;0.98;;;;;;;15.59;100.00;99656.13;7395597;19;20010;-78
2022/08/21 05:28:49;;;;;;;0.70;0.35;;;;;;;15.58;100.00;99655.38;7392299;19;20397;-78
2022/08/21 05:31:15;;;;;;;0.73;0.25;;;;;;;15.57;100.00;99647.47;7396221;19;20018;-79
2022/08/21 05:33:42;;;;;;;6.88;0.55;;;;;;;15.56;100.00;99651.53;7394640;19;20113;-78
2022/08/21 05:36:08;;;;;;;2.95;0.40;;;;;;;15.59;100.00;99650.53;7393791;19;20432;-77
2022/08/21 05:38:34;;;;;;;4.07;0.40;;;;;;;15.65;100.00;99665.31;7396006;19;20014;-77
2022/08/21 05:41:00;;;;;;;0.75;0.45;;;;;;;15.63;100.00;99667.88;7397621;19;20022;-78
2022/08/21 05:43:27;;;;;;;4.00;0.60;;;;;;;15.65;100.00;99662.50;7397152;19;20011;-78
2022/08/21 05:45:53;;;;;;;2.00;0.30;;;;;;;15.66;100.00;99672.44;7393346;19;20022;-79
2022/08/21 05:48:22;;;;;;;0.50;0.50;;;;;;;15.63;100.00;99679.09;7398304;19;20010;-78
2022/08/21 05:50:49;;;;;;;0.28;0.20;;;;;;;15.63;100.00;99676.28;7392195;19;20026;-78
2022/08/21 05:53:17;;;;;;;2.88;0.20;;;;;;;15.63;100.00;99679.09;7392320;19;20019;-79
2022/08/21 05:55:44;;;;;;;0.50;0.20;;;;;;;15.64;100.00;99681.38;7390877;19;20019;-78
2022/08/21 05:58:12;;;;;;;3.58;0.95;;;;;;;15.68;100.00;99687.47;7391581;19;20014;-78
2022/08/21 06:00:38;;;;;;;3.20;0.47;;;;;;;15.71;100.00;99680.84;7387807;19;20022;-78
2022/08/21 06:03:10;;;;;;;0.65;0.55;;;;;;;15.78;100.00;99671.13;7392327;19;20071;-81
2022/08/21 06:05:37;;;;;;;0.40;0.32;;;;;;;15.81;100.00;99676.47;7389758;19;20022;-79
2022/08/21 06:08:03;;;;;;;6.18;0.43;;;;;;;15.88;100.00;99689.22;7388873;19;20022;-80
2022/08/21 06:10:30;;;;;;;0.43;0.13;;;;;;;15.94;100.00;99682.28;7386505;19;20025;-80
2022/08/21 06:12:56;;;;;;;0.28;0.17;;;;;;;15.98;100.00;99682.03;7386458;19;20022;-80
2022/08/21 06:15:22;;;;;;;1.38;0.63;;;;;;;16.00;100.00;99687.91;7386351;19;20023;-80
2022/08/21 06:17:48;;;;;;;4.57;0.40;;;;;;;16.00;100.00;99673.88;7385038;19;20346;-80
2022/08/21 06:20:14;;;;;;;1.10;0.00;;;;;;;16.07;100.00;99689.41;7389574;19;20046;-80
2022/08/21 06:22:40;;;;;;;1.35;0.80;;;;;;;16.09;100.00;99686.84;7390182;19;20475;-80
2022/08/21 06:25:07;;;;;;;5.45;0.20;;;;;;;16.09;100.00;99693.22;7391545;19;20030;-80
2022/08/21 06:27:33;;;;;;;8.73;1.38;;;;;;;16.11;100.00;99704.72;7392876;19;20037;-80
2022/08/21 06:29:59;;;;;;;3.95;0.80;;;;;;;16.13;100.00;99702.16;7395572;19;20022;-79
2022/08/21 06:32:25;;;;;;;0.40;0.13;;;;;;;16.14;100.00;99700.84;7390254;19;20326;-79
2022/08/21 06:34:52;;;;;;;0.45;0.45;;;;;;;16.12;100.00;99697.81;7391237;19;20022;-80
2022/08/21 06:37:18;;;;;;;0.20;0.15;;;;;;;16.09;100.00;99698.09;7391686;19;20101;-80
2022/08/21 06:39:44;;;;;;;1.55;0.60;;;;;;;16.13;100.00;99699.34;7394570;19;20014;-79
2022/08/21 06:42:15;;;;;;;2.00;0.45;;;;;;;16.15;100.00;99702.41;7390856;19;20022;-79
2022/08/21 06:44:42;;;;;;;6.85;0.60;;;;;;;16.17;100.00;99711.06;7392356;19;20022;-80
2022/08/21 06:47:09;;;;;;;4.32;0.20;;;;;;;16.17;100.00;99705.44;7391831;19;20468;-80
2022/08/21 06:49:35;;;;;;;8.77;1.58;;;;;;;16.18;100.00;99709.78;7393945;19;20037;-80
2022/08/21 06:52:02;;;;;;;1.35;0.60;;;;;;;16.14;100.00;99697.28;7389152;19;20018;-80
2022/08/21 06:54:29;;;;;;;1.88;0.43;;;;;;;16.18;100.00;99701.34;7389412;19;20025;-80
2022/08/21 06:56:56;;;;;;;0.10;0.05;;;;;;;16.25;100.00;99695.19;7388871;19;20378;-80
2022/08/21 06:59:22;;;;;;;4.30;0.73;;;;;;;16.31;100.00;99695.16;7393266;19;20019;-80
2022/08/21 07:01:48;;;;;;;0.30;0.10;;;;;;;16.37;100.00;99696.66;7393889;19;20037;-80
2022/08/21 07:04:14;;;;;;;0.63;0.50;;;;;;;16.48;100.00;99709.91;7392131;19;20493;-80
2022/08/21 07:06:40;;;;;;;1.02;0.35;;;;;;;16.49;100.00;99703.75;7390312;19;20103;-80
2022/08/21 07:09:06;;;;;;;3.85;0.68;;;;;;;16.57;100.00;99710.38;7394194;19;20449;-80
2022/08/21 07:11:35;;;;;;;9.20;0.80;;;;;;;16.62;100.00;99709.59;7390179;19;20019;-81
2022/08/21 07:14:01;;;;;;;1.52;1.10;;;;;;;16.60;100.00;99717.78;7390900;19;20011;-82
2022/08/21 07:16:27;;;;;;;0.40;0.40;;;;;;;16.58;100.00;99706.28;7390610;19;20019;-82
2022/08/21 07:18:53;;;;;;;0.40;0.20;;;;;;;16.67;100.00;99696.78;7390557;19;20479;-83
2022/08/21 07:21:20;;;;;;;2.22;0.50;;;;;;;16.91;100.00;99707.34;7389738;19;20031;-82
2022/08/21 07:23:49;;;;;;;2.05;0.73;;;;;;;17.06;100.00;99716.94;7390293;19;20094;-83
2022/08/21 07:26:20;;;;;;;1.42;0.40;;;;;;;17.06;100.00;99707.75;7389528;19;20015;-82
2022/08/21 07:28:50;;;;;;;1.40;0.38;;;;;;;17.07;100.00;99720.50;7391441;19;20350;-82
2022/08/21 07:31:23;;;;;;;8.95;1.10;;;;;;;17.12;100.00;99714.84;7390780;19;20014;-83
2022/08/21 07:33:49;;;;;;;2.05;0.35;;;;;;;17.14;100.00;99717.91;7388615;19;20038;-83
2022/08/21 07:36:15;;;;;;;1.08;0.38;;;;;;;17.18;100.00;99720.41;7388976;19;20090;-83
2022/08/21 07:38:41;;;;;;;0.43;0.10;;;;;;;17.27;100.00;99720.09;7393375;19;20034;-82
2022/08/21 07:41:15;;;;;;;3.00;0.20;;;;;;;17.37;100.00;99712.81;7390176;19;20354;-83
2022/08/21 07:43:41;;;;;;;0.20;0.10;;;;;;;17.35;100.00;99716.19;7390902;19;20011;-82
2022/08/21 07:46:07;;;;;;;6.30;0.45;;;;;;;17.37;100.00;99715.63;7391242;19;20510;-82
2022/08/21 07:48:34;;;;;;;2.50;0.30;;;;;;;17.43;100.00;99716.38;7390779;19;20442;-82
2022/08/21 07:51:05;;;;;;;2.53;0.30;;;;;;;17.48;100.00;99715.53;7386314;19;20022;-82
2022/08/21 07:53:31;;;;;;;0.73;0.45;;;;;;;17.62;100.00;99714.41;7386696;19;20019;-83
2022/08/21 07:55:58;;;;;;;0.52;0.30;;;;;;;17.80;100.00;99710.88;7389411;19;20018;-84
2022/08/21 07:58:24;;;;;;;5.97;0.20;;;;;;;18.05;100.00;99715.22;7388397;19;20468;-83
2022/08/21 08:00:50;;;;;;;0.50;0.38;;;;;;;18.11;100.00;99717.97;7386933;19;20378;-84
2022/08/21 08:03:17;;;;;;;10.43;0.40;;;;;;;18.23;100.00;99718.59;7389532;19;20022;-83
2022/08/21 08:05:43;;;;;;;1.85;0.30;;;;;;;18.29;100.00;99727.75;7388677;19;20035;-84
2022/08/21 08:08:09;;;;;;;1.70;0.20;;;;;;;18.48;100.00;99722.91;7390652;19;20043;-85
2022/08/21 08:10:37;;;;;;;1.75;0.40;;;;;;;18.59;100.00;99728.38;7387438;19;20043;-91
2022/08/21 08:13:04;;;;;;;3.20;0.80;;;;;;;18.58;100.00;99729.69;7392224;19;20021;-83
2022/08/21 08:15:30;;;;;;;1.13;0.38;;;;;;;18.52;100.00;99734.63;7392376;19;20019;-84
2022/08/21 08:17:57;;;;;;;5.93;0.25;;;;;;;18.40;100.00;99733.25;7391787;19;20025;-84
2022/08/21 08:20:26;;;;;;;0.47;0.25;;;;;;;18.35;100.00;99739.69;7394278;19;20025;-84
2022/08/21 08:22:53;;;;;;;0.60;0.25;;;;;;;18.29;100.00;99741.84;7395878;19;20015;-83
2022/08/21 08:25:22;;;;;;;3.22;0.25;;;;;;;18.42;100.00;99725.00;7393321;19;20014;-84
2022/08/21 08:27:49;;;;;;;5.18;0.20;;;;;;;18.59;100.00;99731.97;7392101;19;20334;-83
2022/08/21 08:30:18;;;;;;;4.55;0.10;;;;;;;18.69;100.00;99726.72;7394108;19;20014;-82
2022/08/21 08:32:45;;;;;;;1.52;0.63;;;;;;;18.71;100.00;99724.13;7389062;19;20043;-84
2022/08/21 08:35:12;;;;;;;4.57;0.80;;;;;;;18.72;100.00;99728.47;7387536;19;20015;-83
2022/08/21 08:37:42;;;;;;;0.32;0.10;;;;;;;18.62;100.00;99728.09;7390182;19;20035;-84
2022/08/21 08:40:18;;;;;;;1.48;0.30;;;;;;;18.47;100.00;99727.03;7397243;19;20031;-83
2022/08/21 08:42:47;;;;;;;2.40;0.43;;;;;;;18.36;100.00;99732.78;7393000;19;20019;-85
2022/08/21 08:45:17;;;;;;;2.28;1.00;;;;;;;18.44;100.00;99740.13;7393070;19;20051;-84
2022/08/21 08:47:48;;;;;;;0.32;0.20;;;;;;;18.39;100.00;99745.78;7391626;19;20484;-84
2022/08/21 08:50:38;;;;;;;4.60;0.08;;;;;;;18.49;100.00;99741.34;7397662;19;20015;-83
2022/08/21 08:53:09;;;;;;;2.42;0.75;;;;;;;18.68;100.00;99742.13;7397041;19;20092;-84
2022/08/21 08:55:39;;;;;;;0.00;0.00;;;;;;;18.71;100.00;99735.41;7395211;19;20350;-83
2022/08/21 08:58:06;;;;;;;4.32;0.10;;;;;;;18.71;100.00;99729.78;7395994;19;20030;-80
2022/08/21 09:00:33;;;;;;;5.70;0.47;;;;;;;18.72;100.00;99731.28;7395235;19;20330;-82
2022/08/21 09:03:01;;;;;;;1.73;0.30;;;;;;;18.89;100.00;99732.56;7393419;19;20500;-82
2022/08/21 09:05:46;;;;;;;7.50;0.55;;;;;;;18.85;100.00;99734.16;7395290;19;20050;-84
2022/08/21 09:08:32;;;;;;;2.45;0.73;;;;;;;18.83;100.00;99742.41;7397592;19;20022;-83
2022/08/21 09:11:02;;;;;;;1.65;0.13;;;;;;;18.90;100.00;99741.78;7393554;19;20014;-84
2022/08/21 09:13:43;;;;;;;2.08;0.45;;;;;;;18.93;100.00;99747.13;7394234;19;20516;-88
2022/08/21 09:16:30;;;;;;;0.22;0.15;;;;;;;19.02;100.00;99748.03;7394113;19;20019;-84
2022/08/21 09:18:56;;;;;;;2.67;0.17;;;;;;;19.04;100.00;99757.47;7395194;19;20334;-84
2022/08/21 09:22:02;;;;;;;1.45;0.17;;;;;;;18.94;100.00;99747.88;7391586;19;20011;-84
2022/08/21 09:24:32;;;;;;;0.80;0.20;;;;;;;18.99;100.00;99749.88;7392065;19;20467;-84
2022/08/21 09:27:12;;;;;;;1.08;0.57;;;;;;;19.06;100.00;99751.31;7397102;19;20033;-84
2022/08/21 09:29:44;;;;;;;0.22;0.10;;;;;;;19.16;100.00;99750.38;7394282;19;20014;-85
2022/08/21 09:32:18;;;;;;;4.65;0.38;;;;;;;19.22;100.00;99755.91;7395006;19;20014;-84
2022/08/21 09:35:13;;;;;;;1.85;0.50;;;;;;;19.19;100.00;99754.94;7397284;19;20034;-83
2022/08/21 09:37:53;;;;;;;3.03;0.25;;;;;;;19.25;100.00;99755.59;7398160;19;20016;-82
2022/08/21 09:40:42;;;;;;;0.43;0.15;;;;;;;19.23;100.00;99751.81;7395424;19;20045;-80
2022/08/21 09:43:11;;;;;;;1.40;0.22;;;;;;;19.33;100.00;99744.44;7393775;19;20042;-80
2022/08/21 09:45:39;;;;;;;6.55;0.75;;;;;;;19.33;100.00;99759.34;7395329;19;20050;-79
2022/08/21 09:48:18;;;;;;;2.03;0.50;;;;;;;19.27;100.00;99758.69;7395129;19;20099;-79
2022/08/21 09:50:47;;;;;;;2.60;0.63;;;;;;;19.18;100.00;99756.25;7393332;19;20509;-79
2022/08/21 09:53:26;;;;;;;1.33;0.50;;;;;;;19.10;100.00;99760.97;7392811;19;20033;-79
2022/08/21 09:58:45;;;;;;;2.33;1.20;;;;;;;19.10;100.00;99768.69;7391960;19;20029;-79
2022/08/21 10:01:19;;;;;;;1.90;0.47;;;;;;;19.04;100.00;99768.00;7390427;19;20573;-79
2022/08/21 10:03:46;;;;;;;4.35;0.93;;;;;;;19.09;100.00;99770.00;7390378;19;20027;-79
2022/08/21 10:06:28;;;;;;;1.33;0.38;;;;;;;19.15;100.00;99774.25;7389658;19;20367;-80
2022/08/21 10:09:16;;;;;;;1.27;0.70;;;;;;;19.12;100.00;99764.03;7395847;19;20041;-79
2022/08/21 10:12:08;;;;;;;1.70;0.82;;;;;;;19.25;100.00;99772.53;7392048;19;20026;-80
2022/08/21 10:14:57;;;;;;;4.30;0.38;;;;;;;19.25;100.00;99772.53;7391362;19;20019;-80
2022/08/21 10:17:32;;;;;;;0.77;0.63;;;;;;;19.38;100.00;99774.69;7390876;19;20007;-80
2022/08/21 10:20:07;;;;;;;0.40;0.30;;;;;;;19.20;100.00;99772.63;7396958;19;20120;-79
2022/08/21 10:23:03;;;;;;;4.45;0.65;;;;;;;19.03;100.00;99778.56;7388978;19;20015;-79
2022/08/21 10:25:29;;;;;;;0.63;0.22;;;;;;;19.05;100.00;99781.59;7392181;19;20010;-79
2022/08/21 10:28:07;;;;;;;5.07;0.95;;;;;;;19.10;100.00;99769.44;7391131;19;20018;-80
2022/08/21 10:30:54;;;;;;;6.25;0.80;;;;;;;19.19;100.00;99774.69;7389638;19;20011;-80
2022/08/21 10:33:38;;;;;;;1.13;0.55;;;;;;;19.37;100.00;99771.09;7387697;19;20035;-80
2022/08/21 10:36:20;;;;;;;2.83;0.40;;;;;;;19.63;100.00;99768.34;7388952;19;20018;-80
2022/08/21 10:38:56;;;;;;;4.18;0.75;;;;;;;19.76;100.00;99764.00;7391792;19;20357;-80
2022/08/21 10:41:38;;;;;;;1.45;0.35;;;;;;;19.98;100.00;99770.03;7390906;19;20039;-81
2022/08/21 10:44:23;;;;;;;4.53;0.43;;;;;;;19.94;100.00;99766.00;7392916;19;20465;-81
2022/08/21 10:46:57;;;;;;;2.05;0.20;;;;;;;19.94;100.00;99774.47;7390814;19;20027;-81
2022/08/21 10:49:52;;;;;;;1.77;0.20;;;;;;;19.94;100.00;99768.81;7394112;19;20053;-81
2022/08/21 10:52:56;;;;;;;1.67;0.28;;;;;;;20.03;100.00;99776.88;7389030;19;20495;-81
2022/08/21 10:55:30;;;;;;;6.80;0.38;;;;;;;20.22;100.00;99769.09;7392359;19;20018;-81
2022/08/21 10:58:21;;;;;;;0.73;0.30;;;;;;;20.57;100.00;99765.78;7390597;19;20029;-80
2022/08/21 11:00:53;;;;;;;0.98;0.22;;;;;;;20.64;100.00;99776.41;7391997;19;20029;-80
2022/08/21 11:03:39;;;;;;;1.02;0.57;;;;;;;20.55;100.00;99765.56;7392644;19;20297;-79
2022/08/21 11:06:21;;;;;;;1.13;0.50;;;;;;;20.60;100.00;99767.50;7391856;19;20031;-80
2022/08/21 11:08:56;;;;;;;2.45;0.40;;;;;;;20.53;100.00;99770.25;7393798;19;20026;-80
2022/08/21 11:11:27;;;;;;;0.40;0.28;;;;;;;20.16;100.00;99771.25;7390419;19;20358;-79
2022/08/21 11:14:20;;;;;;;7.15;1.08;;;;;;;20.01;100.00;99773.84;7389615;19;20388;-79
2022/08/21 11:16:53;;;;;;;0.30;0.15;;;;;;;20.19;100.00;99778.63;7389943;19;20385;-80
2022/08/21 11:19:35;;;;;;;1.38;0.65;;;;;;;20.48;100.00;99788.09;7391223;19;20090;-81
2022/08/21 11:22:19;;;;;;;4.53;0.80;;;;;;;20.58;100.00;99778.63;7387757;19;20014;-80
2022/08/21 11:25:03;;;;;;;9.35;0.68;;;;;;;20.56;100.00;99778.41;7388341;19;20375;-81
2022/08/21 11:28:09;;;;;;;8.77;0.40;;;;;;;20.68;100.00;99778.94;7389311;19;20015;-81
2022/08/21 11:30:55;;;;;;;2.65;0.32;;;;;;;20.72;100.00;99785.78;7386458;19;20039;-80
2022/08/21 11:33:31;;;;;;;2.28;0.30;;;;;;;20.70;100.00;99794.06;7393498;19;20014;-80
2022/08/21 11:36:05;;;;;;;4.40;0.70;;;;;;;20.64;100.00;99784.91;7389285;19;20046;-81
2022/08/21 11:38:40;;;;;;;0.20;0.10;;;;;;;20.66;100.00;99776.63;7391598;19;20472;-81
2022/08/21 11:41:31;;;;;;;0.88;0.22;;;;;;;20.81;100.00;99782.47;7390155;19;20375;-82
2022/08/21 11:44:10;;;;;;;;;;;;;;;21.04;100.00;99777.88;7392916;19;20018;-81